Time;durP1;ratioP1;P1;durP2;ratioP2;P2;SDS_P1;SDS_P2;PMS_P1;PMS_P2;Temp;Humidity;BMP_temperature;BMP_pressure;BME280_temperature;BME280_humidity;BME280_pressure;Samples;Min_cycle;Max_cycle;Signal;HPM_P1;HPM_P2
2022/06/02 00:03:10;;;;;;;9.70;3.90;;;;;;;12.34;55.01;98963.30;105956;1273;22823;-85
2022/06/02 00:06:00;;;;;;;10.70;4.30;;;;;;;12.39;55.08;98961.50;105967;1273;22675;-86
2022/06/02 00:08:44;;;;;;;8.80;4.20;;;;;;;12.45;55.21;98963.69;106201;1273;22531;-80
2022/06/02 00:11:24;;;;;;;10.30;4.10;;;;;;;12.45;55.12;98963.35;106125;1273;22559;-83
2022/06/02 00:14:46;;;;;;;10.20;4.30;;;;;;;12.42;55.20;98955.01;105948;1273;24236;-83
2022/06/02 00:18:03;;;;;;;10.80;4.10;;;;;;;12.39;55.16;98953.45;106001;1273;22828;-83
2022/06/02 00:20:50;;;;;;;9.80;4.70;;;;;;;12.34;55.34;98956.02;105550;1282;22655;-81
2022/06/02 00:24:28;;;;;;;;;;;;;;;;;;;;;
2022/06/02 00:27:44;;;;;;;9.90;4.10;;;;;;;12.15;55.45;98961.10;105677;1282;22668;-81
2022/06/02 00:30:47;;;;;;;10.50;4.80;;;;;;;12.02;55.57;98958.75;105231;1282;23947;-80
2022/06/02 00:33:55;;;;;;;9.40;4.30;;;;;;;11.95;55.58;98973.25;105241;1282;22544;-82
2022/06/02 00:37:09;;;;;;;12.20;4.90;;;;;;;11.90;55.85;98971.69;105238;1282;25733;-81
2022/06/02 00:39:38;;;;;;;10.40;4.30;;;;;;;11.89;55.83;98976.56;105559;1282;22550;-86
2022/06/02 00:42:53;;;;;;;8.80;4.00;;;;;;;11.92;55.85;98979.43;105515;1283;22581;-81
2022/06/02 00:45:24;;;;;;;10.80;4.60;;;;;;;11.95;56.06;98985.59;105571;1282;22679;-82
2022/06/02 00:48:04;;;;;;;10.90;5.20;;;;;;;11.97;56.09;98988.77;105468;1282;24256;-84
2022/06/02 00:51:04;;;;;;;12.70;5.30;;;;;;;11.99;56.13;98990.73;105497;1282;23322;-80
2022/06/02 00:57:50;;;;;;;11.00;4.60;;;;;;;11.95;56.36;98988.39;105890;1275;24241;-85
2022/06/02 01:00:29;;;;;;;9.50;5.00;;;;;;;11.88;56.27;98987.19;105935;1273;24221;-83
2022/06/02 01:03:08;;;;;;;11.20;5.50;;;;;;;11.82;56.50;98986.02;106112;1273;24207;-81
2022/06/02 01:05:57;;;;;;;9.70;4.70;;;;;;;11.80;56.46;98987.46;105966;1273;22673;-86
2022/06/02 01:09:11;;;;;;;11.90;4.80;;;;;;;11.80;56.53;98987.95;106039;1273;22721;-80
2022/06/02 01:11:50;;;;;;;9.60;4.20;;;;;;;11.84;56.71;98994.28;105901;1273;24296;-80
2022/06/02 01:15:07;;;;;;;9.30;4.50;;;;;;;11.87;56.71;98989.05;105668;1273;25375;-81
2022/06/02 01:18:37;;;;;;;11.00;4.40;;;;;;;11.90;56.63;98985.45;105810;1275;22550;-83
2022/06/02 01:21:31;;;;;;;13.80;5.00;;;;;;;11.91;56.87;98985.34;105655;1281;24251;-84
2022/06/02 01:24:58;;;;;;;9.00;4.50;;;;;;;11.84;56.83;98988.89;105660;1282;23521;-84
2022/06/02 01:28:20;;;;;;;12.40;4.60;;;;;;;11.71;57.14;98988.18;105466;1282;22703;-82
2022/06/02 01:31:27;;;;;;;9.80;4.80;;;;;;;11.66;57.18;98986.73;105060;1287;22769;-86
2022/06/02 01:34:27;;;;;;;9.10;4.50;;;;;;;11.47;57.21;98991.27;104286;1291;23155;-82
2022/06/02 01:37:05;;;;;;;9.70;4.40;;;;;;;11.43;57.37;98988.91;104112;1292;22629;-84
2022/06/02 01:39:57;;;;;;;9.20;4.50;;;;;;;11.47;57.49;98982.32;104336;1291;22557;-85
2022/06/02 01:42:46;;;;;;;8.90;4.00;;;;;;;11.55;57.52;98973.63;104330;1291;25464;-80
2022/06/02 01:45:46;;;;;;;9.60;3.80;;;;;;;11.65;57.55;98979.86;104397;1291;22547;-81
2022/06/02 01:48:48;;;;;;;7.90;3.10;;;;;;;11.70;57.57;98993.55;104261;1294;22557;-82
2022/06/02 01:51:45;;;;;;;7.50;3.30;;;;;;;11.82;57.94;98985.83;104435;1286;25361;-79
2022/06/02 01:55:14;;;;;;;;;;;;;;;;;;;;;
2022/06/02 01:58:08;;;;;;;9.90;3.40;;;;;;;11.95;57.88;98994.88;105049;1285;24472;-83
2022/06/02 02:00:37;;;;;;;12.00;3.90;;;;;;;11.90;57.88;98995.93;105093;1285;23554;-81
2022/06/02 02:03:34;;;;;;;8.10;3.90;;;;;;;11.91;57.83;98990.02;104914;1285;22673;-82
2022/06/02 02:06:33;;;;;;;8.90;3.50;;;;;;;11.91;57.96;98991.77;105535;1275;24065;-85
2022/06/02 02:09:11;;;;;;;8.00;3.90;;;;;;;11.89;57.93;98993.33;106007;1273;22598;-81
2022/06/02 02:11:54;;;;;;;9.70;3.80;;;;;;;11.85;58.16;99002.02;106035;1273;25484;-83
2022/06/02 02:14:38;;;;;;;11.00;4.00;;;;;;;11.80;58.22;99000.63;105971;1274;22553;-82
2022/06/02 02:17:24;;;;;;;9.30;3.60;;;;;;;11.74;58.23;99006.29;105928;1275;22563;-83
2022/06/02 02:20:32;;;;;;;9.10;3.80;;;;;;;11.62;58.29;99013.81;106011;1273;23134;-81
2022/06/02 02:23:03;;;;;;;8.50;3.60;;;;;;;11.50;58.48;99017.02;105941;1273;24220;-84
2022/06/02 02:26:15;;;;;;;7.40;3.70;;;;;;;11.50;58.51;99021.84;105952;1274;22717;-81
2022/06/02 02:29:16;;;;;;;8.70;3.90;;;;;;;11.53;58.61;99026.10;105848;1273;23273;-81
2022/06/02 02:32:08;;;;;;;9.40;2.50;;;;;;;11.54;58.64;99039.71;105967;1274;24384;-80
2022/06/02 02:35:01;;;;;;;;;;;;;;;;;;;;;
2022/06/02 02:37:48;;;;;;;6.50;2.10;;;;;;;11.74;58.82;99052.63;105981;1273;24212;-87
2022/06/02 02:40:42;;;;;;;4.40;2.10;;;;;;;11.88;58.67;99058.89;105972;1273;25239;-78
2022/06/02 02:44:07;;;;;;;6.40;2.20;;;;;;;12.06;58.66;99076.05;105890;1273;22569;-83
2022/06/02 02:46:58;;;;;;;6.70;2.50;;;;;;;12.22;58.96;99090.14;105455;1281;22599;-77
2022/06/02 02:49:49;;;;;;;5.30;2.20;;;;;;;12.28;58.81;99098.47;105577;1282;22545;-84
2022/06/02 02:53:01;;;;;;;7.10;2.70;;;;;;;12.29;58.65;99105.35;105590;1281;24522;-77
2022/06/02 02:55:42;;;;;;;7.80;2.80;;;;;;;12.28;59.25;99112.69;105381;1284;22548;-84
2022/06/02 02:59:17;;;;;;;5.90;2.40;;;;;;;12.27;58.70;99109.20;105215;1282;25305;-80
2022/06/02 03:02:13;;;;;;;6.90;2.50;;;;;;;12.25;58.65;99110.42;105591;1282;25213;-79
2022/06/02 03:05:28;;;;;;;6.20;2.50;;;;;;;12.25;58.55;99114.22;105417;1281;25542;-79
2022/06/02 03:08:26;;;;;;;5.70;2.50;;;;;;;12.22;58.62;99116.23;105453;1281;24371;-84
2022/06/02 03:11:43;;;;;;;;;;;;;;;;;;;;;
2022/06/02 03:14:57;;;;;;;5.60;2.40;;;;;;;12.13;58.50;99137.95;105663;1281;22608;-82
2022/06/02 03:17:48;;;;;;;7.40;2.40;;;;;;;12.06;58.87;99145.83;105477;1282;22533;-77
2022/06/02 03:20:52;;;;;;;5.70;2.30;;;;;;;11.98;58.64;99154.67;105586;1281;22801;-78
2022/06/02 03:23:46;;;;;;;5.70;2.70;;;;;;;11.86;58.67;99174.48;105588;1276;23122;-77
2022/06/02 03:27:29;;;;;;;5.90;2.50;;;;;;;11.78;58.80;99179.84;105702;1273;22929;-81
2022/06/02 03:30:20;;;;;;;5.90;2.50;;;;;;;11.69;59.23;99159.86;105919;1274;22877;-83
2022/06/02 03:33:51;;;;;;;8.10;2.70;;;;;;;11.55;59.35;99163.38;106115;1273;22551;-84
2022/06/02 03:36:35;;;;;;;6.60;2.50;;;;;;;11.43;59.61;99166.64;105858;1274;25593;-84
2022/06/02 03:39:19;;;;;;;5.70;3.00;;;;;;;11.40;59.66;99175.73;106132;1273;22530;-80
2022/06/02 03:42:24;;;;;;;7.20;3.10;;;;;;;11.40;59.83;99174.54;105924;1277;22529;-79
2022/06/02 03:45:01;;;;;;;5.80;2.70;;;;;;;11.44;59.83;99169.54;105852;1274;23764;-80
2022/06/02 03:48:04;;;;;;;6.20;2.50;;;;;;;11.47;60.02;99176.68;105929;1273;25226;-82
2022/06/02 03:51:00;;;;;;;5.60;2.60;;;;;;;11.45;60.01;99179.64;105948;1277;22552;-79
2022/06/02 03:53:51;;;;;;;6.80;3.00;;;;;;;11.39;60.06;99182.78;105918;1277;22614;-85
2022/06/02 03:56:52;;;;;;;6.00;3.00;;;;;;;11.45;60.17;99195.14;105915;1274;22547;-86
2022/06/02 03:59:21;;;;;;;7.30;3.30;;;;;;;11.50;60.29;99203.02;105946;1274;22607;-86
2022/06/02 04:02:00;;;;;;;6.70;3.00;;;;;;;11.49;60.29;99204.34;105902;1276;23431;-80
2022/06/02 04:05:10;;;;;;;5.20;2.30;;;;;;;11.49;60.32;99205.71;106011;1274;22641;-83
2022/06/02 04:08:16;;;;;;;7.20;3.10;;;;;;;11.48;60.41;99202.77;105615;1282;24416;-86
2022/06/02 04:10:54;;;;;;;6.50;2.30;;;;;;;11.51;60.45;99193.42;105294;1281;22566;-82
2022/06/02 04:13:57;;;;;;;5.90;2.40;;;;;;;11.51;60.34;99207.53;105398;1284;24386;-83
2022/06/02 04:16:59;;;;;;;7.20;2.40;;;;;;;11.48;60.50;99228.13;105462;1282;22547;-80
2022/06/02 04:23:23;;;;;;;6.00;2.60;;;;;;;11.59;60.66;99224.77;105440;1282;25249;-79
2022/06/02 04:26:19;;;;;;;4.80;2.20;;;;;;;11.62;60.27;99219.86;105575;1281;22533;-79
2022/06/02 04:29:50;;;;;;;4.70;2.30;;;;;;;11.61;60.44;99215.53;105629;1281;24302;-79
2022/06/02 04:32:57;;;;;;;4.40;1.70;;;;;;;11.65;60.35;99226.67;105552;1281;23952;-84
2022/06/02 04:35:42;;;;;;;5.10;1.50;;;;;;;11.76;60.20;99230.87;105616;1282;24404;-86
2022/06/02 04:38:56;;;;;;;6.10;1.70;;;;;;;11.89;60.04;99228.98;105583;1281;22545;-86
2022/06/02 04:41:43;;;;;;;4.90;1.80;;;;;;;12.07;60.05;99226.71;105671;1281;22813;-84
2022/06/02 04:44:31;;;;;;;6.10;2.10;;;;;;;12.24;60.54;99220.48;105789;1274;22551;-80
2022/06/02 04:47:18;;;;;;;5.70;2.20;;;;;;;12.44;60.31;99224.67;105898;1273;22575;-84
2022/06/02 04:50:23;;;;;;;6.80;2.70;;;;;;;12.48;60.07;99227.21;105969;1276;22617;-80
2022/06/02 04:53:06;;;;;;;12.40;3.30;;;;;;;12.46;60.41;99225.56;105974;1274;22560;-85
2022/06/02 04:56:03;;;;;;;9.20;3.20;;;;;;;12.52;60.50;99233.70;105961;1274;25531;-84
2022/06/02 04:59:07;;;;;;;8.70;2.50;;;;;;;12.47;60.46;99229.27;105846;1273;24479;-79
2022/06/02 05:01:53;;;;;;;5.30;2.10;;;;;;;12.39;60.17;99216.47;105590;1282;24417;-82
2022/06/02 05:04:30;;;;;;;5.30;2.00;;;;;;;12.25;60.14;99215.75;105572;1282;22609;-79
2022/06/02 05:07:21;;;;;;;4.60;2.10;;;;;;;12.22;60.44;99211.19;105523;1281;22592;-80
2022/06/02 05:10:14;;;;;;;4.00;1.70;;;;;;;12.16;60.37;99229.27;105519;1282;25225;-81
2022/06/02 05:13:26;;;;;;;3.80;1.70;;;;;;;12.06;60.50;99248.92;105525;1282;26476;-80
2022/06/02 05:16:18;;;;;;;4.40;1.80;;;;;;;12.04;60.63;99252.13;105650;1281;22554;-81
2022/06/02 05:19:24;;;;;;;3.30;1.40;;;;;;;12.11;60.79;99255.20;105402;1281;24254;-81
2022/06/02 05:22:44;;;;;;;3.60;1.30;;;;;;;12.10;60.64;99268.88;105702;1281;25771;-79
2022/06/02 05:26:21;;;;;;;7.20;1.70;;;;;;;12.13;60.71;99273.04;105235;1283;23077;-81
2022/06/02 05:29:13;;;;;;;8.00;2.20;;;;;;;12.13;60.93;99280.17;103878;1291;789855;-86
2022/06/02 05:32:08;;;;;;;8.90;2.50;;;;;;;12.21;61.03;99287.83;104514;1289;25301;-81
2022/06/02 05:35:13;;;;;;;10.70;3.20;;;;;;;12.23;60.95;99293.77;104532;1288;22959;-83
2022/06/02 05:38:30;;;;;;;9.20;2.90;;;;;;;12.25;60.98;99291.25;105140;1284;22564;-79
2022/06/02 05:42:07;;;;;;;10.50;3.40;;;;;;;12.57;60.59;99290.62;105139;1284;22994;-85
2022/06/02 05:45:12;;;;;;;6.10;1.70;;;;;;;13.03;60.25;99289.36;105601;1282;22840;-87
2022/06/02 05:48:22;;;;;;;5.30;1.70;;;;;;;13.35;59.91;99288.29;105421;1283;25467;-80
2022/06/02 05:51:04;;;;;;;4.90;1.80;;;;;;;13.67;60.12;99288.95;105603;1282;25450;-82
2022/06/02 05:53:58;;;;;;;4.70;1.50;;;;;;;13.99;60.05;99287.55;105531;1282;26650;-81
2022/06/02 05:57:10;;;;;;;3.50;1.60;;;;;;;14.31;59.87;99295.11;105394;1284;22557;-80
2022/06/02 06:00:29;;;;;;;6.00;1.20;;;;;;;14.62;59.91;99294.80;104768;1288;22608;-80
2022/06/02 06:03:58;;;;;;;3.20;1.10;;;;;;;14.97;59.52;99290.41;104620;1288;22257;-88
2022/06/02 06:07:09;;;;;;;;;;;;;;;;;;;;;
2022/06/02 06:10:07;;;;;;;2.40;0.90;;;;;;;15.44;59.21;99292.52;104905;1288;23135;-86
2022/06/02 06:13:16;;;;;;;4.20;1.20;;;;;;;15.50;58.84;99294.73;104858;1288;26275;-82
2022/06/02 06:15:55;;;;;;;6.30;1.80;;;;;;;15.54;58.88;99295.78;104846;1288;22550;-82
2022/06/02 06:19:00;;;;;;;3.60;1.50;;;;;;;15.66;59.12;99292.42;104630;1287;22564;-82
2022/06/02 06:22:27;;;;;;;3.50;1.30;;;;;;;15.78;58.44;99294.73;104877;1288;23088;-82
2022/06/02 06:25:24;;;;;;;5.00;1.40;;;;;;;15.62;57.99;99299.73;104714;1288;22707;-80
2022/06/02 06:28:05;;;;;;;2.90;1.30;;;;;;;15.58;58.19;99301.17;104886;1288;24349;-76
2022/06/02 06:30:50;;;;;;;5.00;1.20;;;;;;;15.53;57.80;99302.32;104873;1288;22569;-80
2022/06/02 06:33:49;;;;;;;5.90;1.40;;;;;;;15.52;58.22;99305.60;104891;1288;22570;-83
2022/06/02 06:36:32;;;;;;;6.60;1.30;;;;;;;15.66;58.10;99310.00;104910;1284;22854;-81
2022/06/02 06:39:31;;;;;;;7.40;1.60;;;;;;;15.70;58.16;99306.07;105778;1276;22557;-85
2022/06/02 06:42:38;;;;;;;4.10;1.50;;;;;;;15.73;57.52;99311.55;105968;1275;22534;-87
2022/06/02 06:45:19;;;;;;;4.90;1.50;;;;;;;15.63;58.01;99315.14;105912;1277;22544;-84
2022/06/02 06:47:53;;;;;;;5.00;1.50;;;;;;;15.81;58.08;99319.04;105899;1275;24222;-82
2022/06/02 06:51:31;;;;;;;;;;;;;;;;;;;;;
2022/06/02 06:54:52;;;;;;;5.00;1.20;;;;;;;16.08;58.15;99325.77;105970;1274;25492;-82
2022/06/02 06:57:53;;;;;;;3.90;1.30;;;;;;;16.32;57.83;99327.16;105831;1275;22556;-83
2022/06/02 07:00:39;;;;;;;6.00;1.30;;;;;;;16.44;57.82;99326.46;105959;1275;22724;-78
2022/06/02 07:04:11;;;;;;;5.40;1.60;;;;;;;16.53;57.60;99328.52;105894;1277;22813;-81
2022/06/02 07:06:59;;;;;;;4.80;1.40;;;;;;;16.71;57.63;99329.31;105956;1275;22693;-86
2022/06/02 07:09:30;;;;;;;6.30;1.70;;;;;;;16.73;57.55;99328.75;105858;1278;24509;-81
2022/06/02 07:15:18;;;;;;;4.50;1.70;;;;;;;16.87;57.45;99323.86;105891;1275;22576;-85
2022/06/02 07:18:18;;;;;;;4.20;1.40;;;;;;;17.08;57.35;99326.23;105895;1275;22554;-80
2022/06/02 07:21:08;;;;;;;4.50;1.40;;;;;;;17.20;56.97;99327.20;105997;1274;24212;-86
2022/06/02 07:24:08;;;;;;;5.20;1.40;;;;;;;17.18;56.80;99331.78;105922;1275;26469;-83
2022/06/02 07:27:03;;;;;;;3.50;1.30;;;;;;;17.31;57.13;99328.47;106163;1273;22543;-82
2022/06/02 07:30:40;;;;;;;;;;;;;;;;;;;;;
2022/06/02 07:33:20;;;;;;;4.70;1.50;;;;;;;17.51;56.32;99334.16;106011;1274;22538;-86
2022/06/02 07:36:19;;;;;;;5.20;1.20;;;;;;;17.58;56.19;99339.31;105958;1274;22656;-82
2022/06/02 07:39:35;;;;;;;;;;;;;;;;;;;;;
2022/06/02 07:42:15;;;;;;;3.20;1.10;;;;;;;17.50;55.78;99344.44;106144;1273;22531;-81
2022/06/02 07:44:51;;;;;;;4.50;1.40;;;;;;;17.53;56.33;99341.48;106006;1275;25411;-79
2022/06/02 07:48:02;;;;;;;3.50;1.10;;;;;;;17.83;56.32;99342.63;106182;1273;25234;-82
2022/06/02 07:50:33;;;;;;;3.80;1.20;;;;;;;18.18;56.18;99340.05;105976;1273;22554;-86
2022/06/02 07:53:35;;;;;;;6.30;1.20;;;;;;;18.50;56.34;99338.95;105910;1277;24208;-76
2022/06/02 07:56:27;;;;;;;2.80;1.40;;;;;;;18.58;54.98;99345.55;105541;1281;24403;-81
2022/06/02 07:59:20;;;;;;;3.60;1.10;;;;;;;18.25;55.42;99345.89;105650;1281;22544;-81
2022/06/02 08:03:02;;;;;;;5.60;1.30;;;;;;;18.34;55.08;99351.27;105667;1281;22549;-85
2022/06/02 08:05:39;;;;;;;4.00;1.40;;;;;;;18.05;55.43;99351.93;105623;1281;23976;-79
2022/06/02 08:09:06;;;;;;;4.90;1.80;;;;;;;18.04;55.39;99352.72;105683;1283;22559;-83
2022/06/02 08:11:55;;;;;;;5.20;1.20;;;;;;;18.12;55.22;99358.35;105586;1283;22628;-80
2022/06/02 08:15:05;;;;;;;4.00;1.30;;;;;;;18.35;55.26;99360.17;105625;1281;23648;-78
2022/06/02 08:17:49;;;;;;;3.40;1.40;;;;;;;18.42;54.90;99362.84;105711;1281;25245;-80
2022/06/02 08:20:47;;;;;;;2.90;1.30;;;;;;;18.55;55.21;99362.13;105680;1281;25202;-77
2022/06/02 08:23:45;;;;;;;2.00;1.10;;;;;;;18.56;54.42;99365.29;105579;1281;22551;-79
2022/06/02 08:26:26;;;;;;;3.30;1.30;;;;;;;18.37;54.94;99364.67;105605;1281;23958;-80
2022/06/02 08:29:21;;;;;;;3.70;1.40;;;;;;;18.30;54.68;99365.05;105598;1284;22626;-84
2022/06/02 08:32:15;;;;;;;3.70;1.10;;;;;;;18.34;54.81;99369.48;105986;1274;22529;-85
2022/06/02 08:35:23;;;;;;;3.60;1.30;;;;;;;18.50;54.77;99366.45;105976;1275;25530;-78
2022/06/02 08:38:26;;;;;;;2.80;1.10;;;;;;;18.39;54.59;99370.06;106012;1277;23914;-78
2022/06/02 08:41:30;;;;;;;4.30;1.40;;;;;;;18.53;54.25;99368.47;106204;1274;23364;-81
2022/06/02 08:44:40;;;;;;;2.60;1.10;;;;;;;18.48;54.27;99374.34;106226;1274;25228;-77
2022/06/02 08:47:28;;;;;;;4.20;1.30;;;;;;;18.52;54.30;99373.25;105911;1274;24373;-83
2022/06/02 08:50:20;;;;;;;3.40;1.30;;;;;;;18.78;54.62;99367.27;105883;1277;24937;-84
2022/06/02 08:53:18;;;;;;;2.60;0.80;;;;;;;19.13;54.18;99376.08;106109;1277;22626;-78
2022/06/02 08:56:57;;;;;;;4.10;1.50;;;;;;;19.29;52.82;99378.73;105944;1275;22690;-81
2022/06/02 08:59:55;;;;;;;3.70;0.90;;;;;;;19.06;53.35;99378.02;106067;1274;24644;-81
2022/06/02 09:03:05;;;;;;;3.10;1.30;;;;;;;19.16;53.50;99377.23;105951;1274;22560;-79
2022/06/02 09:05:47;;;;;;;3.20;1.10;;;;;;;19.20;53.48;99379.95;105561;1286;25616;-80
2022/06/02 09:08:40;;;;;;;3.40;0.90;;;;;;;19.12;53.28;99378.50;105597;1282;24303;-83
2022/06/02 09:11:41;;;;;;;5.00;1.10;;;;;;;19.23;53.97;99383.02;105561;1284;22860;-83
2022/06/02 09:14:31;;;;;;;1.40;0.70;;;;;;;19.41;52.49;99381.62;105549;1284;22538;-84
2022/06/02 09:17:16;;;;;;;3.30;1.20;;;;;;;19.24;52.83;99381.98;105388;1284;25360;-78
2022/06/02 09:20:19;;;;;;;4.20;1.50;;;;;;;19.32;53.12;99385.83;105574;1284;22567;-83
2022/06/02 09:23:26;;;;;;;4.20;1.00;;;;;;;19.38;53.05;99386.48;104997;1284;22561;-75
2022/06/02 09:26:13;;;;;;;5.20;1.10;;;;;;;19.57;53.01;99391.76;105550;1284;22556;-81
2022/06/02 09:29:02;;;;;;;4.70;1.30;;;;;;;19.82;53.00;99399.52;105626;1284;22535;-83
2022/06/02 09:31:51;;;;;;;4.10;1.10;;;;;;;19.92;52.45;99398.04;105589;1284;22719;-85
2022/06/02 09:34:37;;;;;;;4.50;1.00;;;;;;;19.99;52.74;99393.33;105611;1284;22701;-84
2022/06/02 09:37:41;;;;;;;;;;;;;;;;;;;;;
2022/06/02 09:41:07;;;;;;;4.50;1.00;;;;;;;20.29;52.27;99403.86;105594;1284;24344;-82
2022/06/02 09:44:08;;;;;;;3.60;1.00;;;;;;;19.99;51.72;99402.37;105674;1277;22609;-78
2022/06/02 09:47:13;;;;;;;3.90;0.90;;;;;;;19.81;51.88;99406.59;105939;1274;24214;-77
2022/06/02 09:50:07;;;;;;;4.20;1.00;;;;;;;20.01;52.22;99407.93;106212;1274;24316;-81
2022/06/02 09:53:21;;;;;;;;;;;;;;;;;;;;;
2022/06/02 09:56:25;;;;;;;4.80;1.50;;;;;;;20.37;52.02;99400.90;106240;1274;24992;-85
2022/06/02 10:00:22;;;;;;;3.60;1.10;;;;;;;20.69;52.22;99404.48;105991;1275;22556;-85
2022/06/02 10:02:45;;;;;;;3.30;1.00;;;;;;;20.93;51.87;99408.17;106032;1274;22529;-79
2022/06/02 10:05:44;;;;;;;3.30;0.90;;;;;;;20.97;51.14;99408.82;105854;1278;24387;-80
2022/06/02 10:08:32;;;;;;;4.00;1.10;;;;;;;20.89;50.89;99402.95;105512;1281;22575;-86
2022/06/02 10:11:46;;;;;;;3.70;1.10;;;;;;;20.58;50.80;99400.76;105601;1281;24215;-84
2022/06/02 10:14:27;;;;;;;3.30;1.10;;;;;;;20.61;51.17;99403.70;105612;1282;23001;-81
2022/06/02 10:17:30;;;;;;;3.90;1.30;;;;;;;20.69;50.91;99404.02;105622;1281;22512;-76
2022/06/02 10:20:24;;;;;;;4.90;0.90;;;;;;;20.23;50.18;99408.23;105661;1281;24272;-85
2022/06/02 10:23:37;;;;;;;4.10;1.20;;;;;;;20.09;50.07;99415.60;105550;1281;22546;-83
2022/06/02 10:26:37;;;;;;;3.50;1.10;;;;;;;19.94;50.39;99408.52;105614;1281;23033;-81
2022/06/02 10:29:29;;;;;;;3.30;0.90;;;;;;;20.03;50.92;99407.02;105657;1281;22560;-79
2022/06/02 10:32:23;;;;;;;2.90;0.80;;;;;;;20.43;51.18;99399.67;105607;1281;25295;-75
2022/06/02 10:35:15;;;;;;;2.70;1.00;;;;;;;20.54;50.01;99407.48;105619;1282;22721;-82
2022/06/02 10:38:06;;;;;;;3.90;0.90;;;;;;;20.44;50.19;99405.13;105639;1281;25346;-79
2022/06/02 10:41:15;;;;;;;2.60;1.00;;;;;;;20.56;50.17;99402.41;105607;1284;23920;-79
2022/06/02 10:44:10;;;;;;;4.20;1.10;;;;;;;20.63;50.09;99400.52;105607;1281;22739;-83
2022/06/02 10:47:07;;;;;;;4.80;0.80;;;;;;;20.71;49.32;99403.35;105767;1277;22605;-83
2022/06/02 10:49:44;;;;;;;3.00;1.00;;;;;;;20.79;50.08;99396.98;105941;1277;25555;-77
2022/06/02 10:52:58;;;;;;;5.10;1.00;;;;;;;20.85;49.22;99394.76;105886;1274;22696;-84
2022/06/02 10:56:02;;;;;;;3.80;1.00;;;;;;;20.59;48.55;99397.16;106151;1274;22611;-83
2022/06/02 10:59:01;;;;;;;4.50;0.70;;;;;;;20.45;49.04;99396.67;106115;1273;25307;-79
2022/06/02 11:02:19;;;;;;;2.70;0.90;;;;;;;20.34;49.20;99393.23;106188;1274;22615;-85
2022/06/02 11:05:37;;;;;;;3.60;1.10;;;;;;;20.57;49.43;99398.68;105806;1278;24356;-80
2022/06/02 11:08:07;;;;;;;4.60;1.30;;;;;;;20.77;49.74;99396.30;105976;1275;25565;-79
2022/06/02 11:11:01;;;;;;;5.10;1.00;;;;;;;21.16;49.60;99391.65;105936;1274;22551;-78
2022/06/02 11:13:39;;;;;;;3.30;0.70;;;;;;;21.54;49.49;99392.73;106140;1273;23907;-85
2022/06/02 11:16:09;;;;;;;1.90;0.80;;;;;;;21.65;48.71;99379.70;106209;1273;25361;-77
2022/06/02 11:19:21;;;;;;;4.00;1.00;;;;;;;21.61;47.24;99392.62;105918;1277;22558;-79
2022/06/02 11:21:59;;;;;;;5.80;1.30;;;;;;;21.36;48.10;99390.73;106036;1274;22523;-80
2022/06/02 11:24:55;;;;;;;2.80;1.10;;;;;;;21.28;48.32;99392.31;105893;1274;24128;-80
2022/06/02 11:27:50;;;;;;;3.10;0.90;;;;;;;21.00;48.22;99389.95;105921;1276;22836;-80
2022/06/02 11:30:41;;;;;;;2.80;0.80;;;;;;;21.12;48.39;99389.95;106183;1273;23966;-80
2022/06/02 11:33:49;;;;;;;4.20;0.80;;;;;;;21.27;48.96;99388.58;106257;1273;22748;-85
2022/06/02 11:36:42;;;;;;;3.50;0.80;;;;;;;21.21;48.00;99385.89;105992;1274;22550;-84
2022/06/02 11:39:29;;;;;;;3.20;0.80;;;;;;;21.20;48.63;99386.15;106195;1273;25303;-84
2022/06/02 11:42:21;;;;;;;3.60;1.00;;;;;;;21.50;48.09;99390.20;106054;1276;22769;-77
2022/06/02 11:45:44;;;;;;;2.60;0.70;;;;;;;21.15;47.37;99389.79;105889;1274;22581;-79
2022/06/02 11:48:31;;;;;;;3.80;1.00;;;;;;;21.07;47.52;99393.17;105805;1273;26539;-79
2022/06/02 11:51:08;;;;;;;3.20;0.90;;;;;;;20.78;47.96;99400.25;105903;1274;22605;-78
2022/06/02 11:57:48;;;;;;;15.00;3.50;;;;;;;21.26;47.41;99390.13;106803;1273;25556;-81
2022/06/02 12:00:48;;;;;;;4.90;1.20;;;;;;;21.30;47.79;99390.50;106524;1272;24908;-76
2022/06/02 12:03:34;;;;;;;4.80;1.10;;;;;;;21.56;47.49;99389.40;106248;1274;25709;-75
2022/06/02 12:06:37;;;;;;;3.10;0.80;;;;;;;21.55;46.64;99394.54;106094;1275;24210;-77
2022/06/02 12:09:33;;;;;;;4.50;0.90;;;;;;;21.58;46.83;99394.60;106490;1273;24275;-81
2022/06/02 12:12:24;;;;;;;2.00;0.80;;;;;;;21.49;46.74;99391.04;106172;1273;22679;-79
2022/06/02 12:15:20;;;;;;;6.10;1.10;;;;;;;21.52;47.10;99383.91;106111;1273;25331;-77
2022/06/02 12:18:01;;;;;;;1.50;0.50;;;;;;;21.67;46.92;99381.42;105925;1274;22826;-73
2022/06/02 12:20:52;;;;;;;3.80;0.60;;;;;;;21.61;46.60;99384.60;106127;1273;26481;-83
2022/06/02 12:23:54;;;;;;;3.60;0.70;;;;;;;21.53;46.57;99383.23;106171;1273;25306;-78
2022/06/02 12:26:49;;;;;;;2.80;0.70;;;;;;;21.52;46.73;99382.42;105929;1275;22560;-80
2022/06/02 12:30:03;;;;;;;2.50;0.60;;;;;;;21.43;46.55;99386.36;106108;1275;22687;-79
2022/06/02 12:33:50;;;;;;;;;;;;;;;;;;;;;
2022/06/02 12:37:10;;;;;;;3.50;0.70;;;;;;;21.45;46.04;99394.48;106170;1273;22539;-80
2022/06/02 12:39:57;;;;;;;2.30;0.60;;;;;;;21.37;46.26;99388.73;106140;1275;22643;-79
2022/06/02 12:42:53;;;;;;;3.90;0.90;;;;;;;21.33;45.83;99390.27;106292;1273;22675;-78
2022/06/02 12:45:51;;;;;;;2.10;0.70;;;;;;;21.22;45.81;99389.84;105842;1275;22838;-81
2022/06/02 12:48:27;;;;;;;0.70;0.40;;;;;;;21.28;46.31;99397.17;106044;1275;22716;-78
2022/06/02 12:51:07;;;;;;;1.50;0.50;;;;;;;21.26;45.41;99395.94;106207;1274;22563;-79
2022/06/02 12:53:55;;;;;;;2.40;0.60;;;;;;;21.08;45.65;99392.77;105705;1274;23925;-78
2022/06/02 12:56:39;;;;;;;3.10;0.60;;;;;;;21.09;45.65;99398.27;105634;1273;22557;-80
2022/06/02 12:59:47;;;;;;;1.90;0.60;;;;;;;21.12;45.56;99399.90;106056;1274;25521;-76
2022/06/02 13:02:43;;;;;;;1.70;0.60;;;;;;;21.13;45.03;99399.93;105813;1281;26476;-81
2022/06/02 13:05:15;;;;;;;2.30;0.60;;;;;;;21.05;45.15;99404.23;106232;1281;23951;-76
2022/06/02 13:08:09;;;;;;;2.60;0.60;;;;;;;21.12;45.55;99403.02;105517;1281;22585;-77
2022/06/02 13:10:57;;;;;;;1.90;0.50;;;;;;;21.26;45.21;99399.94;105422;1281;24243;-77
2022/06/02 13:14:50;;;;;;;2.60;0.60;;;;;;;21.32;45.48;99400.23;105705;1281;22556;-77
2022/06/02 13:17:38;;;;;;;3.20;0.60;;;;;;;21.43;45.45;99400.83;105510;1279;23964;-77
2022/06/02 13:24:57;;;;;;;1.80;0.60;;;;;;;21.39;44.94;99401.61;105530;1281;23000;-77
2022/06/02 13:27:54;;;;;;;1.60;0.50;;;;;;;21.43;44.93;99400.63;105109;1284;23932;-80
2022/06/02 13:31:02;;;;;;;;;;;;;;;;;;;;;
2022/06/02 13:34:27;;;;;;;1.10;0.50;;;;;;;21.52;44.93;99408.27;105828;1281;22837;-77
2022/06/02 13:37:27;;;;;;;2.10;0.60;;;;;;;21.61;44.72;99405.45;105597;1281;22997;-77
2022/06/02 13:40:35;;;;;;;2.20;0.60;;;;;;;21.65;44.67;99412.25;105548;1275;22614;-78
2022/06/02 13:43:54;;;;;;;1.90;0.60;;;;;;;21.77;44.67;99406.20;105998;1274;22745;-76
2022/06/02 13:47:00;;;;;;;3.70;0.60;;;;;;;21.91;44.69;99398.70;105802;1275;22699;-78
2022/06/02 13:50:08;;;;;;;0.90;0.50;;;;;;;21.98;44.51;99399.31;106143;1274;23177;-75
2022/06/02 13:53:27;;;;;;;1.20;0.50;;;;;;;22.04;44.36;99399.36;106088;1274;22550;-76
2022/06/02 13:59:30;;;;;;;;;;;;;;;;;;;;;
2022/06/02 14:02:50;;;;;;;;;;;;;;;;;;;;;
2022/06/02 14:06:19;;;;;;;2.20;0.60;;;;;;;22.02;44.12;99396.89;105342;1281;24264;-82
2022/06/02 14:09:14;;;;;;;2.60;0.70;;;;;;;22.05;43.60;99399.08;105074;1282;22855;-77
2022/06/02 14:12:02;;;;;;;2.20;0.50;;;;;;;21.96;43.98;99394.29;104991;1281;22586;-82
2022/06/02 14:15:09;;;;;;;1.90;0.60;;;;;;;22.06;43.73;99396.90;105254;1281;24216;-83
2022/06/02 14:17:55;;;;;;;3.00;0.50;;;;;;;22.12;43.75;99397.11;105204;1282;22566;-79
2022/06/02 14:20:39;;;;;;;1.20;0.40;;;;;;;22.16;43.87;99398.66;105812;1281;22567;-76
2022/06/02 14:23:24;;;;;;;2.60;0.40;;;;;;;22.20;43.41;99397.12;105817;1281;22562;-80
2022/06/02 14:26:20;;;;;;;2.60;0.40;;;;;;;22.11;43.16;99401.05;105463;1281;24205;-78
2022/06/02 14:28:56;;;;;;;1.10;0.30;;;;;;;22.01;43.27;99402.53;105483;1281;25267;-76
2022/06/02 14:32:06;;;;;;;1.70;0.50;;;;;;;21.99;43.22;99404.23;105541;1281;22989;-75
2022/06/02 14:35:08;;;;;;;3.00;0.60;;;;;;;22.01;43.15;99407.27;105479;1281;23177;-77